Time;durP1;ratioP1;P1;durP2;ratioP2;P2;SDS_P1;SDS_P2;PMS_P1;PMS_P2;Temp;Humidity;BMP_temperature;BMP_pressure;BME280_temperature;BME280_humidity;BME280_pressure;Samples;Min_cycle;Max_cycle;Signal;HPM_P1;HPM_P2
2021/11/04 00:00:17;;;;;;;115.70;32.92;;;6.30;99.90;;;;;;6218005;23;20027;-81
2021/11/04 00:02:43;;;;;;;124.20;33.72;;;6.30;99.90;;;;;;6193643;23;20008;-81
2021/11/04 00:05:09;;;;;;;175.73;35.17;;;6.30;99.90;;;;;;6217934;23;20012;-81
2021/11/04 00:07:36;;;;;;;110.93;32.97;;;6.30;99.90;;;;;;6193344;23;20087;-81
2021/11/04 00:10:02;;;;;;;84.50;32.33;;;6.30;99.90;;;;;;6245621;23;20016;-81
2021/11/04 00:12:28;;;;;;;61.58;31.25;;;6.30;99.90;;;;;;6193551;23;20016;-81
2021/11/04 00:14:54;;;;;;;58.67;30.88;;;6.40;99.90;;;;;;6217734;23;20023;-81
2021/11/04 00:17:19;;;;;;;57.10;30.30;;;6.30;99.90;;;;;;6193429;23;20023;-81
2021/11/04 00:19:45;;;;;;;59.03;29.65;;;6.40;99.90;;;;;;6218294;23;20031;-81
2021/11/04 00:22:11;;;;;;;56.00;28.92;;;6.40;99.90;;;;;;6218755;23;20423;-81
2021/11/04 00:24:37;;;;;;;53.25;28.55;;;6.40;99.90;;;;;;6193102;23;20086;-81
2021/11/04 00:27:03;;;;;;;49.20;28.45;;;6.40;99.90;;;;;;6193557;23;20008;-81
2021/11/04 00:29:29;;;;;;;55.78;28.42;;;6.40;99.90;;;;;;6192862;23;20014;-81
2021/11/04 00:31:55;;;;;;;52.03;28.60;;;6.40;99.90;;;;;;6218464;23;20012;-81
2021/11/04 00:34:21;;;;;;;93.30;31.52;;;6.40;99.90;;;;;;6218304;23;20047;-81
2021/11/04 00:36:48;;;;;;;74.53;31.85;;;6.40;99.90;;;;;;6218656;23;20452;-81
2021/11/04 00:39:17;;;;;;;60.50;30.80;;;6.40;99.90;;;;;;6218338;23;20333;-81
2021/11/04 00:41:43;;;;;;;84.78;31.45;;;6.40;99.90;;;;;;6218375;23;20013;-81
2021/11/04 00:44:11;;;;;;;52.25;30.30;;;6.40;99.90;;;;;;6217490;23;20035;-81
2021/11/04 00:46:37;;;;;;;58.45;31.95;;;6.40;99.90;;;;;;6193258;23;20012;-81
2021/11/04 00:49:03;;;;;;;73.60;29.98;;;6.50;99.90;;;;;;6217985;23;20011;-81
2021/11/04 00:51:29;;;;;;;60.00;32.03;;;6.40;99.90;;;;;;6218471;23;20058;-81
2021/11/04 00:53:55;;;;;;;58.45;31.52;;;6.40;99.90;;;;;;6192560;23;20023;-81
2021/11/04 00:56:20;;;;;;;95.65;33.28;;;6.40;99.90;;;;;;6218397;23;20022;-81
2021/11/04 00:58:49;;;;;;;97.25;33.50;;;6.40;99.90;;;;;;6217679;23;20048;-81
2021/11/04 01:01:17;;;;;;;60.58;31.67;;;6.40;99.90;;;;;;6218245;23;20012;-81
2021/11/04 01:03:42;;;;;;;59.45;32.15;;;6.40;99.90;;;;;;6218381;23;20370;-81
2021/11/04 01:06:08;;;;;;;106.55;33.85;;;6.50;99.90;;;;;;6217349;23;20118;-81
2021/11/04 01:08:34;;;;;;;120.72;35.20;;;6.40;99.90;;;;;;6217909;23;20020;-81
2021/11/04 01:10:59;;;;;;;64.63;32.88;;;6.40;99.90;;;;;;6218383;23;20094;-81
2021/11/04 01:13:25;;;;;;;64.00;33.65;;;6.40;99.90;;;;;;6193190;23;20016;-81
2021/11/04 01:15:51;;;;;;;62.97;33.92;;;6.40;99.90;;;;;;6218742;23;20027;-82
2021/11/04 01:18:17;;;;;;;111.47;34.92;;;6.50;99.90;;;;;;6192402;23;20012;-81
2021/11/04 01:20:42;;;;;;;89.38;36.10;;;6.50;99.90;;;;;;6217756;23;20480;-81
2021/11/04 01:23:10;;;;;;;74.70;34.97;;;6.50;99.90;;;;;;6218208;23;20087;-81
2021/11/04 01:25:36;;;;;;;97.95;35.40;;;6.50;99.90;;;;;;6218199;23;20086;-82
2021/11/04 01:28:07;;;;;;;65.18;32.22;;;6.40;99.90;;;;;;6217906;23;20117;-81
2021/11/04 01:30:35;;;;;;;59.92;31.60;;;6.50;99.90;;;;;;6217307;23;20424;-81
2021/11/04 01:33:01;;;;;;;84.32;32.33;;;6.50;99.90;;;;;;6218079;23;20038;-82
2021/11/04 01:35:26;;;;;;;71.20;32.63;;;6.50;99.90;;;;;;6191389;23;20340;-81
2021/11/04 01:37:52;;;;;;;60.42;32.03;;;6.40;99.90;;;;;;6217932;23;20050;-81
2021/11/04 01:40:18;;;;;;;60.10;31.17;;;6.50;99.90;;;;;;6217827;23;20012;-81
2021/11/04 01:42:43;;;;;;;60.15;31.92;;;6.50;99.90;;;;;;6217916;23;20015;-82
2021/11/04 01:45:12;;;;;;;70.82;32.05;;;6.50;99.90;;;;;;6217255;23;20091;-82
2021/11/04 01:47:40;;;;;;;75.15;31.77;;;6.60;99.90;;;;;;6192150;23;20098;-82
2021/11/04 01:50:07;;;;;;;74.50;32.90;;;6.40;99.90;;;;;;6217667;23;20328;-82
2021/11/04 01:52:32;;;;;;;73.80;30.38;;;6.50;99.90;;;;;;6217932;23;20421;-81
2021/11/04 01:54:58;;;;;;;56.55;29.75;;;6.50;99.90;;;;;;6192218;23;20095;-81
2021/11/04 01:57:24;;;;;;;51.92;27.85;;;6.50;99.90;;;;;;6217770;23;20043;-81
2021/11/04 01:59:49;;;;;;;46.65;24.70;;;6.50;99.90;;;;;;6217077;23;20059;-82
2021/11/04 02:02:19;;;;;;;47.45;25.70;;;6.50;99.90;;;;;;6217909;23;20066;-82
2021/11/04 02:05:02;;;;;;;43.60;25.20;;;6.50;99.90;;;;;;6191538;23;20012;-82
2021/11/04 02:07:37;;;;;;;45.78;25.35;;;6.50;99.90;;;;;;6217584;23;20012;-82
2021/11/04 02:10:13;;;;;;;58.33;28.35;;;6.50;99.90;;;;;;6217665;23;20012;-82
2021/11/04 02:12:51;;;;;;;68.00;29.95;;;6.40;99.90;;;;;;6192624;23;20111;-82
2021/11/04 02:15:17;;;;;;;52.38;29.42;;;6.40;99.90;;;;;;6191856;23;20336;-82
2021/11/04 02:17:45;;;;;;;58.28;29.52;;;6.50;99.90;;;;;;6192674;23;20122;-82
2021/11/04 02:20:18;;;;;;;68.72;31.70;;;6.50;99.90;;;;;;6217592;23;20074;-82
2021/11/04 02:23:17;;;;;;;52.35;28.75;;;6.50;99.90;;;;;;6217524;23;20385;-82
2021/11/04 02:25:45;;;;;;;82.57;33.28;;;6.50;99.90;;;;;;6069119;23;20045;-82
2021/11/04 02:28:13;;;;;;;82.65;33.65;;;6.50;99.90;;;;;;6069143;23;20054;-82
2021/11/04 02:30:40;;;;;;;85.68;32.95;;;6.50;99.90;;;;;;6068322;23;20014;-82
2021/11/04 02:33:07;;;;;;;63.75;32.25;;;6.40;99.90;;;;;;6069171;23;20106;-82
2021/11/04 02:35:33;;;;;;;81.07;30.85;;;6.50;99.90;;;;;;6068909;23;20010;-81
2021/11/04 02:37:59;;;;;;;65.85;31.55;;;6.50;99.90;;;;;;6069150;23;20089;-82
2021/11/04 02:40:25;;;;;;;61.83;31.23;;;6.40;99.90;;;;;;6069044;23;20048;-81
2021/11/04 02:42:52;;;;;;;64.55;31.17;;;6.70;99.90;;;;;;6068572;23;20026;-81
2021/11/04 02:45:25;;;;;;;59.47;30.85;;;6.50;99.90;;;;;;6067894;23;20351;-81
2021/11/04 02:47:51;;;;;;;56.00;27.88;;;6.50;99.90;;;;;;6068992;23;20019;-82
2021/11/04 02:50:19;;;;;;;48.40;26.65;;;6.50;99.90;;;;;;6068472;23;20081;-81
2021/11/04 02:52:44;;;;;;;56.88;27.17;;;6.50;99.90;;;;;;6068735;23;20205;-82
2021/11/04 02:55:10;;;;;;;57.75;31.20;;;6.40;99.90;;;;;;6068587;23;20526;-82
2021/11/04 02:57:47;;;;;;;69.70;32.92;;;6.50;99.90;;;;;;6068857;23;20014;-81
2021/11/04 03:00:15;;;;;;;111.35;34.75;;;6.60;99.90;;;;;;6092094;23;20019;-82
2021/11/04 03:02:41;;;;;;;73.65;34.05;;;6.50;99.90;;;;;;6160652;23;20023;-81
2021/11/04 03:05:07;;;;;;;80.90;32.47;;;6.50;99.90;;;;;;6217125;23;20006;-81
2021/11/04 03:07:33;;;;;;;69.07;32.08;;;6.50;99.90;;;;;;6217467;23;20062;-81
2021/11/04 03:09:59;;;;;;;62.45;31.38;;;6.50;99.90;;;;;;6217117;23;20430;-82
2021/11/04 03:12:25;;;;;;;65.40;32.63;;;6.50;99.90;;;;;;6191251;23;20023;-82
2021/11/04 03:14:52;;;;;;;93.70;34.25;;;6.50;99.90;;;;;;6191144;23;20016;-82
2021/11/04 03:17:18;;;;;;;72.88;30.90;;;6.50;99.90;;;;;;6191672;23;20081;-81
2021/11/04 03:19:45;;;;;;;66.70;30.33;;;6.50;99.90;;;;;;6217313;23;20016;-81
2021/11/04 03:22:11;;;;;;;70.03;31.23;;;6.60;99.90;;;;;;6217280;23;20100;-81
2021/11/04 03:24:37;;;;;;;80.38;32.25;;;6.60;99.90;;;;;;6191882;23;20377;-81
2021/11/04 03:27:06;;;;;;;62.55;32.25;;;6.50;99.90;;;;;;6217367;23;20012;-81
2021/11/04 03:29:36;;;;;;;75.68;31.25;;;6.50;99.90;;;;;;6192571;23;20193;-82
2021/11/04 03:32:05;;;;;;;55.60;29.88;;;6.50;99.90;;;;;;6246158;23;20065;-82
2021/11/04 03:34:32;;;;;;;60.08;30.73;;;6.60;99.90;;;;;;6193659;23;20012;-81
2021/11/04 03:37:01;;;;;;;61.17;29.80;;;6.60;99.90;;;;;;6194363;23;20024;-82
2021/11/04 03:39:27;;;;;;;62.20;27.05;;;6.50;99.90;;;;;;6219102;23;20042;-81
2021/11/04 03:41:56;;;;;;;50.30;26.58;;;6.50;99.90;;;;;;6194076;23;20158;-82
2021/11/04 03:44:23;;;;;;;61.42;27.92;;;6.50;99.90;;;;;;6193264;23;20012;-82
2021/11/04 03:46:51;;;;;;;59.05;27.92;;;6.50;99.90;;;;;;6219093;23;20008;-82
2021/11/04 03:49:32;;;;;;;50.40;26.75;;;6.50;99.90;;;;;;6193816;23;20012;-82
2021/11/04 03:51:58;;;;;;;50.88;27.50;;;6.50;99.90;;;;;;6193876;23;20070;-82
2021/11/04 03:54:26;;;;;;;52.42;27.38;;;6.50;99.90;;;;;;6194136;23;20087;-82
2021/11/04 03:56:53;;;;;;;44.70;24.98;;;6.50;99.90;;;;;;6169604;23;20119;-82
2021/11/04 03:59:20;;;;;;;41.92;24.52;;;6.50;99.90;;;;;;6192400;23;20012;-82
2021/11/04 04:01:46;;;;;;;48.05;24.70;;;6.50;99.90;;;;;;6219019;23;20016;-81
2021/11/04 04:04:12;;;;;;;47.53;24.25;;;6.50;99.90;;;;;;6218463;23;20074;-81
2021/11/04 04:06:39;;;;;;;44.85;25.27;;;6.50;99.90;;;;;;6218714;23;20444;-81
2021/11/04 04:09:07;;;;;;;41.53;24.02;;;6.50;99.90;;;;;;6218252;23;20092;-82
2021/11/04 04:11:33;;;;;;;44.88;24.02;;;6.40;99.90;;;;;;6218795;23;20027;-82
2021/11/04 04:13:58;;;;;;;46.53;24.45;;;6.40;99.90;;;;;;6217815;23;20083;-82
2021/11/04 04:16:25;;;;;;;56.58;26.30;;;6.40;99.90;;;;;;6218907;23;20016;-82
2021/11/04 04:18:51;;;;;;;47.85;25.65;;;6.50;99.90;;;;;;6218542;23;20360;-82
2021/11/04 04:21:17;;;;;;;58.13;26.92;;;6.50;99.90;;;;;;6192638;23;20071;-82
2021/11/04 04:23:43;;;;;;;46.85;25.35;;;6.50;99.90;;;;;;6218373;23;20098;-82
2021/11/04 04:26:09;;;;;;;58.45;27.20;;;6.40;99.90;;;;;;6218601;23;20016;-82
2021/11/04 04:28:35;;;;;;;67.55;28.35;;;6.50;99.90;;;;;;6217934;23;20491;-82
2021/11/04 04:31:01;;;;;;;70.13;31.42;;;6.50;99.90;;;;;;6218840;23;20012;-81
2021/11/04 04:33:27;;;;;;;60.42;30.63;;;6.50;99.90;;;;;;6193244;23;20043;-82
2021/11/04 04:35:53;;;;;;;57.42;30.27;;;6.50;99.90;;;;;;6218723;23;20022;-82
2021/11/04 04:38:19;;;;;;;83.70;31.85;;;6.50;99.90;;;;;;6218100;23;20066;-81
2021/11/04 04:40:45;;;;;;;70.45;30.83;;;6.50;99.90;;;;;;6218454;23;20016;-81
2021/11/04 04:43:10;;;;;;;56.25;30.05;;;6.70;99.90;;;;;;6193246;23;20016;-81
2021/11/04 04:45:36;;;;;;;66.47;29.35;;;6.50;99.90;;;;;;6217623;23;20022;-81
2021/11/04 04:48:03;;;;;;;78.35;30.83;;;6.60;99.90;;;;;;6218621;23;20012;-81
2021/11/04 04:50:28;;;;;;;64.15;30.08;;;6.50;99.90;;;;;;6192587;23;20102;-82
2021/11/04 04:52:54;;;;;;;67.60;32.67;;;6.50;99.90;;;;;;6193003;23;20377;-81
2021/11/04 04:55:28;;;;;;;84.15;31.92;;;6.50;99.90;;;;;;6193121;23;20368;-81
2021/11/04 04:58:59;;;;;;;;;;;;;;;;;;;;;
2021/11/04 05:01:29;;;;;;;72.53;31.95;;;6.30;99.90;;;;;;6064571;23;20104;-81
2021/11/04 05:04:40;;;;;;;67.28;29.10;;;7.20;99.90;;;;;;6039617;23;20087;-81
2021/11/04 05:07:39;;;;;;;60.88;29.08;;;6.50;99.90;;;;;;6072235;23;20101;-81
2021/11/04 05:10:43;;;;;;;65.03;28.48;;;5.90;99.90;;;;;;6073664;23;20014;-81
2021/11/04 05:14:00;;;;;;;53.33;26.35;;;6.50;99.90;;;;;;6008484;23;20022;-82
2021/11/04 05:16:46;;;;;;;47.90;26.20;;;6.50;99.90;;;;;;6012092;23;20054;-82
2021/11/04 05:19:12;;;;;;;52.67;27.20;;;6.70;99.90;;;;;;5988539;23;20342;-82
2021/11/04 05:21:40;;;;;;;54.47;27.38;;;6.50;99.90;;;;;;6011940;23;20019;-82
2021/11/04 05:24:33;;;;;;;59.90;27.88;;;6.80;99.90;;;;;;6035579;23;20047;-82
2021/11/04 05:27:31;;;;;;;56.25;28.02;;;6.30;99.90;;;;;;6035942;23;20018;-81
2021/11/04 05:45:11;;;;;;;38.90;22.02;;;6.70;99.90;;;;;;5978263;24;20627;-82
2021/11/04 05:55:06;;;;;;;36.55;20.98;;;6.40;99.90;;;;;;6006872;23;20106;-81
2021/11/04 05:57:51;;;;;;;40.92;22.42;;;6.70;99.90;;;;;;6007239;23;20580;-81
2021/11/04 06:00:35;;;;;;;49.35;24.30;;;6.40;99.90;;;;;;6006468;23;20027;-81
2021/11/04 06:03:25;;;;;;;40.67;22.67;;;7.10;99.90;;;;;;6007490;23;20046;-82
2021/11/04 06:06:51;;;;;;;42.53;22.75;;;6.20;99.90;;;;;;6006646;23;20083;-81
2021/11/04 06:10:42;;;;;;;;;;;;;;;;;;;;;
2021/11/04 06:14:13;;;;;;;45.42;24.25;;;6.40;99.90;;;;;;6096073;23;20035;-81
2021/11/04 06:21:26;;;;;;;;;;;;;;;;;;;;;
2021/11/04 06:24:17;;;;;;;56.65;27.02;;;6.20;99.90;;;;;;5895362;24;20116;-81
2021/11/04 06:27:59;;;;;;;51.35;25.88;;;6.60;99.90;;;;;;5868944;24;20022;-81
2021/11/04 06:31:31;;;;;;;50.00;25.77;;;6.30;99.90;;;;;;5868283;24;20021;-81
2021/11/04 06:34:24;;;;;;;50.22;26.08;;;6.50;99.90;;;;;;5792002;24;20010;-81
2021/11/04 06:37:37;;;;;;;70.28;29.30;;;6.90;99.90;;;;;;5815760;24;20399;-82
2021/11/04 06:40:14;;;;;;;67.78;30.35;;;6.50;99.90;;;;;;5769932;24;20023;-81
2021/11/04 06:43:30;;;;;;;65.88;31.17;;;6.50;99.90;;;;;;5792815;24;20479;-82
2021/11/04 06:46:26;;;;;;;65.30;29.90;;;6.50;99.90;;;;;;5793259;24;20092;-82
2021/11/04 06:49:19;;;;;;;61.00;29.38;;;6.40;99.90;;;;;;5794465;24;20029;-81
2021/11/04 06:52:29;;;;;;;55.75;28.73;;;6.50;99.90;;;;;;5806435;24;20389;-82
2021/11/04 06:55:48;;;;;;;;;;;6.50;99.90;;;;;;5814460;24;20025;-82
2021/11/04 06:59:03;;;;;;;53.63;25.45;;;6.40;99.90;;;;;;5908256;24;19906;-82
2021/11/04 07:09:41;;;;;;;37.40;22.13;;;6.70;99.90;;;;;;5933041;24;20158;-81
2021/11/04 07:16:51;;;;;;;37.60;22.25;;;6.30;99.90;;;;;;5763684;24;20028;-82
2021/11/04 07:19:19;;;;;;;43.17;24.85;;;7.10;99.90;;;;;;5764675;24;20012;-82
2021/11/04 07:22:14;;;;;;;44.10;23.73;;;6.90;99.90;;;;;;5764804;24;20012;-82
2021/11/04 07:25:07;;;;;;;37.97;22.60;;;6.40;99.90;;;;;;5764499;24;20012;-80
2021/11/04 07:28:13;;;;;;;37.95;21.80;;;6.50;99.90;;;;;;5666640;25;20009;-82
2021/11/04 07:30:39;;;;;;;35.17;21.73;;;6.50;99.90;;;;;;5686912;24;20024;-82
2021/11/04 07:33:05;;;;;;;31.83;19.48;;;6.50;99.90;;;;;;5667029;25;20160;-81
2021/11/04 07:35:37;;;;;;;27.15;18.00;;;6.40;99.90;;;;;;5687220;25;20471;-83
2021/11/04 07:38:06;;;;;;;26.35;17.08;;;6.60;99.90;;;;;;5666806;25;20017;-82
2021/11/04 07:40:32;;;;;;;42.33;18.80;;;6.50;99.90;;;;;;5711524;24;20022;-81
2021/11/04 07:42:58;;;;;;;36.72;19.80;;;6.50;99.90;;;;;;5833575;24;20017;-86
2021/11/04 07:45:25;;;;;;;47.50;20.08;;;6.40;99.90;;;;;;5797947;24;20061;-81
2021/11/04 07:47:51;;;;;;;116.25;21.65;;;6.40;99.90;;;;;;5905065;23;20139;-82
2021/11/04 07:50:26;;;;;;;52.83;19.25;;;6.40;99.90;;;;;;6046366;23;20074;-81
2021/11/04 07:52:53;;;;;;;29.67;17.88;;;6.30;99.90;;;;;;6069821;23;20397;-81
2021/11/04 07:55:19;;;;;;;38.03;18.48;;;6.40;99.90;;;;;;6070271;23;20025;-81
2021/11/04 07:57:48;;;;;;;615.22;26.00;;;6.40;99.90;;;;;;6046559;23;20048;-81
2021/11/04 08:00:16;;;;;;;104.60;19.02;;;6.30;99.90;;;;;;6069214;23;20534;-81
2021/11/04 08:02:42;;;;;;;32.88;18.92;;;6.30;99.90;;;;;;6070137;23;20046;-80
2021/11/04 08:05:10;;;;;;;875.72;30.08;;;6.40;99.90;;;;;;6150475;23;20024;-79
2021/11/04 08:07:36;;;;;;;579.30;25.48;;;6.30;99.90;;;;;;6188819;23;20035;-80
2021/11/04 08:10:14;;;;;;;685.28;28.95;;;6.20;99.90;;;;;;6188822;23;20012;-80
2021/11/04 08:12:40;;;;;;;98.65;19.52;;;6.20;99.90;;;;;;6208791;23;20063;-80
2021/11/04 08:15:09;;;;;;;39.15;20.02;;;6.20;99.90;;;;;;6192498;23;20016;-80
2021/11/04 08:17:35;;;;;;;268.10;24.02;;;6.20;99.90;;;;;;6246759;23;20008;-81
2021/11/04 08:20:02;;;;;;;56.25;20.45;;;6.30;99.90;;;;;;6218896;23;20436;-80
2021/11/04 08:22:28;;;;;;;53.47;21.67;;;6.40;99.90;;;;;;6219099;23;20015;-80
2021/11/04 08:24:54;;;;;;;55.80;21.35;;;6.50;99.90;;;;;;6193359;23;20008;-81
2021/11/04 08:27:20;;;;;;;39.95;21.25;;;6.50;99.90;;;;;;6218426;23;20020;-80
2021/11/04 08:29:46;;;;;;;52.75;23.65;;;6.60;99.90;;;;;;6218589;23;20286;-80
2021/11/04 08:32:12;;;;;;;48.38;23.27;;;6.70;99.90;;;;;;6195694;23;20019;-80
2021/11/04 08:34:39;;;;;;;83.03;23.88;;;6.70;99.90;;;;;;6220442;23;20016;-80
2021/11/04 08:37:05;;;;;;;68.70;22.95;;;6.80;99.90;;;;;;6195480;23;20095;-80
2021/11/04 08:39:31;;;;;;;88.03;24.23;;;6.80;99.90;;;;;;6220096;23;20082;-80
2021/11/04 08:41:57;;;;;;;168.93;26.98;;;6.90;99.90;;;;;;6218646;23;20312;-81
2021/11/04 08:44:24;;;;;;;147.82;26.42;;;6.90;99.90;;;;;;6217585;23;20012;-81
2021/11/04 08:46:50;;;;;;;72.28;25.85;;;7.00;99.90;;;;;;6218761;23;20015;-82
2021/11/04 08:49:15;;;;;;;52.72;26.80;;;7.00;99.90;;;;;;6218113;23;20091;-80
2021/11/04 08:51:41;;;;;;;65.32;28.80;;;7.10;99.90;;;;;;6218340;23;20047;-80
2021/11/04 08:54:07;;;;;;;57.15;26.42;;;7.20;99.90;;;;;;6217858;23;20012;-80
2021/11/04 08:56:35;;;;;;;124.93;26.80;;;7.30;99.90;;;;;;6218104;23;20012;-80
2021/11/04 08:59:02;;;;;;;131.80;27.92;;;7.40;99.90;;;;;;6217755;23;20019;-80
2021/11/04 09:01:28;;;;;;;55.58;26.65;;;7.40;99.90;;;;;;6192849;23;20016;-80
2021/11/04 09:03:53;;;;;;;47.97;25.58;;;7.50;99.90;;;;;;6191820;23;20016;-80
2021/11/04 09:06:19;;;;;;;60.30;27.10;;;7.60;99.90;;;;;;6193077;23;20023;-80
2021/11/04 09:08:45;;;;;;;63.30;25.88;;;7.70;99.90;;;;;;6217482;23;20074;-81
2021/11/04 09:11:11;;;;;;;180.55;22.20;;;7.60;99.90;;;;;;6192714;23;20086;-81
2021/11/04 09:13:36;;;;;;;47.58;22.42;;;7.50;99.90;;;;;;6218131;23;20444;-81
2021/11/04 09:16:02;;;;;;;175.07;22.20;;;7.40;99.90;;;;;;6193588;23;20011;-81
2021/11/04 09:18:28;;;;;;;46.65;19.98;;;7.30;99.90;;;;;;6192750;23;20066;-80
2021/11/04 09:20:53;;;;;;;33.90;18.83;;;7.30;99.90;;;;;;6217827;23;20094;-81
2021/11/04 09:23:19;;;;;;;41.58;18.25;;;7.50;99.90;;;;;;6217690;23;20016;-81
2021/11/04 09:25:45;;;;;;;29.77;17.52;;;7.20;99.90;;;;;;6192642;23;20008;-80
2021/11/04 09:28:11;;;;;;;53.33;18.65;;;7.30;99.90;;;;;;6192767;23;20016;-80
2021/11/04 09:30:37;;;;;;;25.63;16.10;;;7.50;99.90;;;;;;6191052;23;20008;-80
2021/11/04 09:33:02;;;;;;;27.30;17.33;;;7.60;99.90;;;;;;6217802;23;20015;-80
2021/11/04 09:35:28;;;;;;;26.40;16.98;;;7.70;99.90;;;;;;6217741;23;20019;-80
2021/11/04 09:37:54;;;;;;;27.25;17.80;;;7.70;99.90;;;;;;6217595;23;20012;-81
2021/11/04 09:40:20;;;;;;;33.40;18.02;;;7.80;99.90;;;;;;6217615;23;20042;-80
2021/11/04 09:42:47;;;;;;;34.30;19.70;;;7.70;99.90;;;;;;6217297;23;20012;-80
2021/11/04 09:45:13;;;;;;;31.27;19.17;;;7.90;99.90;;;;;;6216669;23;20023;-81
2021/11/04 09:47:40;;;;;;;31.60;19.95;;;8.10;99.90;;;;;;6217745;23;20012;-81
2021/11/04 09:50:11;;;;;;;30.73;19.65;;;8.20;99.90;;;;;;6217353;23;20455;-80
2021/11/04 09:52:39;;;;;;;29.40;19.30;;;8.30;99.90;;;;;;6192712;23;20095;-80
2021/11/04 09:55:13;;;;;;;32.08;19.05;;;8.30;99.90;;;;;;6192244;23;20015;-81
2021/11/04 09:57:40;;;;;;;27.30;17.40;;;8.40;99.90;;;;;;6217361;23;20380;-81
2021/11/04 10:00:07;;;;;;;27.45;18.77;;;8.30;99.90;;;;;;6191625;23;20285;-79
2021/11/04 10:02:33;;;;;;;32.15;18.35;;;8.40;99.90;;;;;;6217078;23;20019;-81
2021/11/04 10:05:03;;;;;;;27.65;18.67;;;8.40;99.90;;;;;;6192110;23;20012;-80
2021/11/04 10:07:49;;;;;;;28.50;18.67;;;8.80;99.90;;;;;;6217470;23;20008;-81
2021/11/04 10:10:17;;;;;;;28.80;19.17;;;8.50;99.90;;;;;;6217218;23;20012;-81
2021/11/04 10:13:07;;;;;;;26.55;17.60;;;8.50;99.90;;;;;;6217429;23;20016;-81
2021/11/04 10:15:36;;;;;;;28.90;18.48;;;8.60;99.90;;;;;;6191523;23;20019;-81
2021/11/04 10:18:19;;;;;;;31.27;19.08;;;8.70;99.90;;;;;;6217559;23;20024;-80
2021/11/04 10:21:00;;;;;;;24.48;17.20;;;8.80;99.90;;;;;;6244269;23;20135;-81
2021/11/04 10:23:34;;;;;;;24.88;16.35;;;8.80;99.90;;;;;;6217485;23;20016;-80
2021/11/04 10:26:04;;;;;;;26.83;17.33;;;8.80;99.90;;;;;;6217502;23;20012;-80
2021/11/04 10:28:31;;;;;;;24.63;17.63;;;8.90;99.90;;;;;;6216320;23;20368;-80
2021/11/04 10:30:58;;;;;;;26.63;17.77;;;9.40;99.90;;;;;;6192469;23;20012;-81
2021/11/04 10:33:26;;;;;;;23.73;16.40;;;9.30;99.90;;;;;;6217180;23;20386;-80
2021/11/04 10:36:07;;;;;;;23.92;16.75;;;9.20;99.90;;;;;;6192111;23;20336;-81
2021/11/04 10:38:34;;;;;;;21.85;16.10;;;9.40;99.90;;;;;;6218476;23;20038;-81
2021/11/04 10:41:02;;;;;;;22.77;15.82;;;9.40;99.90;;;;;;6194348;23;20083;-80
2021/11/04 10:43:27;;;;;;;20.27;14.40;;;9.50;99.90;;;;;;6192960;23;20012;-81
2021/11/04 10:46:11;;;;;;;26.50;14.82;;;9.30;99.90;;;;;;6249098;23;20150;-80
2021/11/04 10:48:40;;;;;;;21.10;14.45;;;9.50;99.90;;;;;;6223493;23;20119;-81
2021/11/04 10:51:07;;;;;;;21.08;13.07;;;9.60;99.90;;;;;;6196581;23;20085;-80
2021/11/04 10:53:32;;;;;;;19.13;12.82;;;9.60;99.90;;;;;;6219379;23;20432;-80
2021/11/04 10:56:18;;;;;;;15.95;12.52;;;9.70;99.90;;;;;;6219579;23;20022;-80
2021/11/04 10:58:58;;;;;;;18.48;12.90;;;9.70;99.90;;;;;;6218766;23;20012;-81
2021/11/04 11:01:34;;;;;;;17.33;11.98;;;9.70;99.90;;;;;;6219059;23;20328;-81
2021/11/04 11:07:19;;;;;;;16.50;12.30;;;10.00;99.90;;;;;;6213456;23;21134;-80
2021/11/04 11:09:57;;;;;;;16.83;12.73;;;9.90;99.90;;;;;;6035268;23;20087;-80
2021/11/04 11:12:42;;;;;;;18.25;12.82;;;9.80;99.90;;;;;;6069687;23;20455;-81
2021/11/04 11:16:09;;;;;;;15.40;11.85;;;10.20;99.90;;;;;;6069062;23;20146;-81
2021/11/04 11:19:06;;;;;;;16.92;12.07;;;10.20;99.90;;;;;;6069087;23;20470;-80
2021/11/04 11:25:44;;;;;;;14.23;11.60;;;10.80;99.90;;;;;;6069329;23;20018;-81
2021/11/04 11:28:50;;;;;;;17.20;11.40;;;10.20;99.90;;;;;;5979554;23;20096;-80
2021/11/04 11:35:53;;;;;;;18.50;12.68;;;9.90;99.90;;;;;;5954483;24;20027;-80
2021/11/04 11:38:49;;;;;;;;;;;;;;;;;;;;;
2021/11/04 11:41:59;;;;;;;13.18;10.40;;;10.10;99.90;;;;;;5924153;24;20023;-80
2021/11/04 11:45:36;;;;;;;14.30;11.52;;;10.10;99.90;;;;;;5899681;24;20485;-80
2021/11/04 11:52:28;;;;;;;10.65;8.65;;;10.50;99.90;;;;;;5820451;24;20075;-80
2021/11/04 11:55:04;;;;;;;10.18;7.85;;;10.50;99.90;;;;;;5815818;24;20098;-80
2021/11/04 11:58:29;;;;;;;10.25;8.52;;;11.40;99.90;;;;;;5808056;24;20465;-80
2021/11/04 12:01:41;;;;;;;16.60;12.38;;;10.60;99.90;;;;;;5794500;24;20015;-80
2021/11/04 12:12:15;;;;;;;;;;;;;;;;;;;;;
2021/11/04 12:15:20;;;;;;;14.55;11.90;;;11.50;99.90;;;;;;5895977;24;20093;-81
2021/11/04 12:25:15;;;;;;;14.23;10.18;;;11.80;99.90;;;;;;5993191;23;20145;-80
2021/11/04 12:32:13;;;;;;;13.70;10.70;;;12.30;99.90;;;;;;5923915;24;20113;-81
2021/11/04 12:35:17;;;;;;;13.55;10.00;;;11.90;99.90;;;;;;5900716;24;20583;-81
2021/11/04 12:37:45;;;;;;;14.30;10.88;;;11.80;99.90;;;;;;5923812;24;20035;-81
2021/11/04 12:40:14;;;;;;;13.63;10.60;;;11.70;99.90;;;;;;5901428;24;20049;-81
2021/11/04 12:42:44;;;;;;;13.38;10.60;;;11.80;99.90;;;;;;6007799;23;20023;-81
2021/11/04 12:45:11;;;;;;;15.40;10.13;;;11.70;99.90;;;;;;5983288;23;20463;-80
2021/11/04 12:47:37;;;;;;;15.80;11.15;;;11.60;99.90;;;;;;6054184;23;20015;-81
2021/11/04 12:50:03;;;;;;;15.07;10.85;;;11.60;99.90;;;;;;6036033;23;20025;-80
2021/11/04 12:52:28;;;;;;;15.00;9.63;;;11.60;99.90;;;;;;6064914;23;20019;-80
2021/11/04 12:54:56;;;;;;;19.00;9.65;;;11.70;99.90;;;;;;6036315;23;20015;-81
2021/11/04 12:57:24;;;;;;;16.08;9.73;;;11.80;99.90;;;;;;6041029;23;20027;-80
2021/11/04 13:00:03;;;;;;;13.00;9.73;;;11.80;99.90;;;;;;6044135;23;20110;-81
2021/11/04 13:02:32;;;;;;;11.77;9.32;;;11.70;99.90;;;;;;6074243;23;20073;-80
2021/11/04 13:05:07;;;;;;;11.48;9.70;;;11.60;99.90;;;;;;6074215;23;20014;-80
2021/11/04 13:07:38;;;;;;;10.75;8.52;;;11.80;99.90;;;;;;6122682;23;20067;-80
2021/11/04 13:10:08;;;;;;;12.07;8.50;;;11.80;99.90;;;;;;6191650;23;20024;-81
2021/11/04 13:12:43;;;;;;;10.52;8.15;;;11.70;99.90;;;;;;6191746;23;20376;-80
2021/11/04 13:15:14;;;;;;;8.30;7.35;;;11.80;99.90;;;;;;6187411;23;20340;-81
2021/11/04 13:17:53;;;;;;;12.05;8.48;;;11.90;99.90;;;;;;6188157;23;20139;-80
2021/11/04 13:20:26;;;;;;;10.60;8.00;;;12.20;99.90;;;;;;6187715;23;20038;-80
2021/11/04 13:23:10;;;;;;;8.90;6.40;;;12.20;99.90;;;;;;6163038;23;20032;-80
2021/11/04 13:25:54;;;;;;;8.50;5.85;;;12.20;99.90;;;;;;6187868;23;20459;-81
2021/11/04 13:28:23;;;;;;;6.57;5.55;;;12.00;99.90;;;;;;6187509;23;20019;-80
2021/11/04 13:30:54;;;;;;;7.07;5.97;;;11.80;99.90;;;;;;6188149;23;20031;-81
2021/11/04 13:33:44;;;;;;;10.07;6.47;;;11.60;99.90;;;;;;6187306;23;20102;-79
2021/11/04 13:36:17;;;;;;;7.82;6.57;;;11.40;99.90;;;;;;6167641;23;20023;-80
2021/11/04 13:38:51;;;;;;;8.70;7.38;;;11.50;99.90;;;;;;6187700;23;20531;-80
2021/11/04 13:41:36;;;;;;;11.23;7.63;;;11.50;99.90;;;;;;6162532;23;20013;-81
2021/11/04 13:44:18;;;;;;;8.52;7.53;;;11.70;99.90;;;;;;6186758;23;20064;-81
2021/11/04 13:46:46;;;;;;;9.10;7.50;;;11.60;99.90;;;;;;6187620;23;20009;-80
2021/11/04 13:49:11;;;;;;;9.68;7.75;;;11.40;99.90;;;;;;6186818;23;20097;-80
2021/11/04 13:51:40;;;;;;;9.82;7.97;;;11.40;99.90;;;;;;6187070;23;20441;-79
2021/11/04 13:54:13;;;;;;;12.52;8.27;;;11.40;99.90;;;;;;6186769;23;20474;-79
2021/11/04 13:56:41;;;;;;;9.63;8.13;;;11.40;99.90;;;;;;6187316;23;20013;-79
2021/11/04 13:59:08;;;;;;;9.18;7.93;;;11.40;99.90;;;;;;6161373;23;20012;-80
2021/11/04 14:01:34;;;;;;;8.57;7.68;;;11.20;99.90;;;;;;6186879;23;20413;-79
2021/11/04 14:14:19;;;;;;;10.18;8.43;;;11.60;99.90;;;;;;6212906;23;20016;-79
2021/11/04 14:17:10;;;;;;;14.75;8.80;;;11.20;99.90;;;;;;6231586;23;20340;-80
2021/11/04 14:23:13;;;;;;;14.33;10.43;;;10.80;99.90;;;;;;6151229;23;20373;-79
2021/11/04 14:25:57;;;;;;;14.73;10.65;;;11.00;99.90;;;;;;6126477;23;20013;-80
2021/11/04 14:28:48;;;;;;;13.40;10.57;;;10.80;99.90;;;;;;6062384;23;20015;-78
2021/11/04 14:31:47;;;;;;;;;;;;;;;;;;;;;
2021/11/04 14:34:23;;;;;;;14.35;10.32;;;10.70;99.90;;;;;;6061510;23;20019;-80
2021/11/04 14:38:04;;;;;;;14.35;11.40;;;10.70;99.90;;;;;;6042279;23;20035;-78
2021/11/04 14:44:07;;;;;;;15.13;11.80;;;10.60;99.90;;;;;;5976548;24;20365;-79
2021/11/04 14:47:08;;;;;;;;;;;;;;;;;;;;;
2021/11/04 14:50:01;;;;;;;16.83;12.47;;;10.20;99.90;;;;;;5954537;24;20012;-80
2021/11/04 14:52:52;;;;;;;14.95;12.15;;;10.00;99.90;;;;;;5954592;24;20025;-79
2021/11/04 14:55:47;;;;;;;;;;;10.20;99.90;;;;;;5923329;24;20024;-80